Time;durP1;ratioP1;P1;durP2;ratioP2;P2;SDS_P1;SDS_P2;PMS_P1;PMS_P2;Temp;Humidity;BMP_temperature;BMP_pressure;BME280_temperature;BME280_humidity;BME280_pressure;Samples;Min_cycle;Max_cycle;Signal;HPM_P1;HPM_P2
2024/02/16 00:02:18;;;;;;;5.00;2.40;;;13.00;99.90;;;;;;5011075;28;20734;-84
2024/02/16 00:04:43;;;;;;;3.60;2.30;;;13.00;99.90;;;;;;4999915;28;20182;-83
2024/02/16 00:07:09;;;;;;;3.40;2.07;;;13.00;99.90;;;;;;5016504;28;20524;-82
2024/02/16 00:09:35;;;;;;;3.70;1.97;;;12.90;99.90;;;;;;5002116;28;20207;-82
2024/02/16 00:12:01;;;;;;;3.53;1.87;;;12.80;1.00;;;;;;5020211;28;20195;-84
2024/02/16 00:14:26;;;;;;;5.90;2.17;;;12.80;1.00;;;;;;5003466;28;20207;-84
2024/02/16 00:16:52;;;;;;;6.83;2.60;;;12.90;1.00;;;;;;5021344;28;20499;-84
2024/02/16 00:19:18;;;;;;;3.67;2.03;;;12.80;99.90;;;;;;5024225;28;20272;-85
2024/02/16 00:21:43;;;;;;;2.53;2.33;;;12.80;99.90;;;;;;5010127;28;20194;-85
2024/02/16 00:24:09;;;;;;;7.73;2.50;;;12.80;99.90;;;;;;5006568;28;20187;-83
2024/02/16 00:26:35;;;;;;;4.97;2.53;;;12.80;99.90;;;;;;5009019;28;20184;-84
2024/02/16 00:29:00;;;;;;;5.53;2.30;;;12.80;1.00;;;;;;5022282;28;21343;-85
2024/02/16 00:31:26;;;;;;;6.90;2.90;;;12.80;1.00;;;;;;5021487;28;20195;-83
2024/02/16 00:33:51;;;;;;;4.30;2.27;;;12.80;1.00;;;;;;5008085;28;20203;-84
2024/02/16 00:36:17;;;;;;;4.87;2.70;;;12.80;1.00;;;;;;5021687;28;20184;-85
2024/02/16 00:38:43;;;;;;;4.30;2.30;;;12.80;1.00;;;;;;5018403;28;20217;-83
2024/02/16 00:41:08;;;;;;;4.80;2.57;;;12.70;62.20;;;;;;5016298;28;20191;-81
2024/02/16 00:43:34;;;;;;;3.37;2.33;;;12.70;99.90;;;;;;5023481;28;20217;-83
2024/02/16 00:45:59;;;;;;;3.60;2.60;;;12.70;99.90;;;;;;5015945;28;20218;-82
2024/02/16 00:48:25;;;;;;;2.70;2.50;;;12.70;32.10;;;;;;5014436;28;20752;-84
2024/02/16 00:50:50;;;;;;;4.03;2.17;;;12.70;1.00;;;;;;4998331;28;20571;-82
2024/02/16 00:53:16;;;;;;;6.87;2.77;;;12.70;1.00;;;;;;5016524;28;20187;-83
2024/02/16 00:55:41;;;;;;;5.10;3.27;;;12.80;1.00;;;;;;4999415;28;20185;-83
2024/02/16 00:58:07;;;;;;;4.93;2.27;;;12.80;1.00;;;;;;5016945;28;20736;-83
2024/02/16 01:00:33;;;;;;;4.83;3.13;;;12.80;1.00;;;;;;5019048;28;20190;-84
2024/02/16 01:02:58;;;;;;;6.73;2.80;;;12.80;1.00;;;;;;5015695;28;20230;-83
2024/02/16 01:05:24;;;;;;;6.03;3.17;;;12.80;1.00;;;;;;4996383;28;20179;-83
2024/02/16 01:07:50;;;;;;;5.63;2.67;;;12.80;1.00;;;;;;5012734;28;20186;-81
2024/02/16 01:10:15;;;;;;;4.60;2.90;;;12.90;1.00;;;;;;5018261;28;20186;-84
2024/02/16 01:12:41;;;;;;;3.03;2.50;;;12.90;1.00;;;;;;5013259;28;20193;-85
2024/02/16 01:15:07;;;;;;;5.33;2.73;;;12.90;1.00;;;;;;5001736;28;20702;-84
2024/02/16 01:17:32;;;;;;;3.20;2.47;;;12.90;1.00;;;;;;5018323;28;20199;-84
2024/02/16 01:19:58;;;;;;;2.43;1.70;;;12.90;1.00;;;;;;5017639;28;20454;-84
2024/02/16 01:22:24;;;;;;;4.33;2.30;;;12.90;1.00;;;;;;5021124;28;20756;-83
2024/02/16 01:24:49;;;;;;;3.60;2.40;;;12.90;1.00;;;;;;5018351;28;20263;-82
2024/02/16 01:27:16;;;;;;;3.03;2.50;;;13.00;1.00;;;;;;5016462;28;20286;-83
2024/02/16 01:29:42;;;;;;;2.67;2.20;;;13.00;1.00;;;;;;4996192;28;20203;-81
2024/02/16 01:32:08;;;;;;;5.10;2.70;;;13.00;42.10;;;;;;5017326;28;20986;-84
2024/02/16 01:34:33;;;;;;;5.50;2.70;;;12.90;99.90;;;;;;5014334;28;20449;-82
2024/02/16 01:36:59;;;;;;;3.40;2.67;;;12.90;1.00;;;;;;5012236;28;20188;-84
2024/02/16 01:39:25;;;;;;;4.20;2.53;;;12.80;99.90;;;;;;5019053;28;20340;-82
2024/02/16 01:41:50;;;;;;;5.60;2.70;;;12.70;1.00;;;;;;5017857;28;20472;-83
2024/02/16 01:44:16;;;;;;;5.70;3.47;;;12.70;1.00;;;;;;5018275;28;20206;-84
2024/02/16 01:46:43;;;;;;;3.70;3.00;;;12.70;99.90;;;;;;5019723;28;20257;-84
2024/02/16 01:49:10;;;;;;;5.57;3.10;;;12.60;1.00;;;;;;5022851;28;20219;-84
2024/02/16 01:51:36;;;;;;;3.80;3.10;;;12.50;95.50;;;;;;5017697;28;20440;-85
2024/02/16 01:54:02;;;;;;;3.57;2.93;;;12.50;88.50;;;;;;5028952;28;20469;-84
2024/02/16 01:56:29;;;;;;;5.70;3.00;;;12.40;99.90;;;;;;5019328;28;20450;-84
2024/02/16 01:58:54;;;;;;;6.60;3.17;;;12.40;99.90;;;;;;5018768;28;20673;-83
2024/02/16 02:01:20;;;;;;;6.90;2.97;;;12.40;99.90;;;;;;5023979;28;20445;-85
2024/02/16 02:03:46;;;;;;;4.50;3.00;;;12.40;99.90;;;;;;5021104;28;20218;-85
2024/02/16 02:06:11;;;;;;;4.13;2.90;;;12.40;99.90;;;;;;5018841;28;20274;-84
2024/02/16 02:08:37;;;;;;;5.10;3.10;;;12.40;99.90;;;;;;5026171;28;20202;-84
2024/02/16 02:11:02;;;;;;;5.60;3.23;;;12.30;99.90;;;;;;5010401;28;20178;-85
2024/02/16 02:13:29;;;;;;;6.43;3.17;;;12.30;99.90;;;;;;5024561;28;20214;-84
2024/02/16 02:15:55;;;;;;;3.37;2.80;;;12.30;99.90;;;;;;5003638;28;20191;-86
2024/02/16 02:18:21;;;;;;;3.53;2.47;;;12.30;99.90;;;;;;5007901;28;20453;-84
2024/02/16 02:20:47;;;;;;;5.67;3.27;;;12.40;99.90;;;;;;5020492;28;20514;-85
2024/02/16 02:23:13;;;;;;;4.17;3.13;;;12.40;26.40;;;;;;5012292;28;20243;-84
2024/02/16 02:25:39;;;;;;;7.50;3.13;;;12.40;92.50;;;;;;5026197;28;20624;-84
2024/02/16 02:28:06;;;;;;;3.40;2.57;;;12.40;2.50;;;;;;5020322;28;20473;-84
2024/02/16 02:30:31;;;;;;;4.43;2.90;;;12.50;1.00;;;;;;5014662;28;20938;-83
2024/02/16 02:32:57;;;;;;;3.10;2.43;;;12.50;1.00;;;;;;5019356;28;20448;-83
2024/02/16 02:35:23;;;;;;;6.30;3.43;;;12.60;1.00;;;;;;5009498;28;20212;-84
2024/02/16 02:37:48;;;;;;;9.03;2.97;;;12.60;1.00;;;;;;5010107;28;20244;-83
2024/02/16 02:40:14;;;;;;;6.37;2.60;;;12.60;1.00;;;;;;4998941;28;20600;-84
2024/02/16 02:42:40;;;;;;;5.67;3.10;;;12.70;1.00;;;;;;5015854;28;20322;-84
2024/02/16 02:45:06;;;;;;;4.60;3.03;;;12.70;1.00;;;;;;4999587;28;20209;-84
2024/02/16 02:47:32;;;;;;;5.40;2.73;;;12.70;1.00;;;;;;5009704;28;20190;-84
2024/02/16 02:49:57;;;;;;;4.27;2.63;;;12.70;1.00;;;;;;5015638;28;20466;-84
2024/02/16 02:52:23;;;;;;;6.60;3.00;;;12.70;1.00;;;;;;5002511;28;21074;-84
2024/02/16 02:54:48;;;;;;;3.80;2.90;;;12.70;1.00;;;;;;5017533;28;20654;-84
2024/02/16 02:57:14;;;;;;;4.10;3.13;;;12.70;99.90;;;;;;5004360;28;20283;-81
2024/02/16 02:59:40;;;;;;;4.53;2.70;;;12.70;99.90;;;;;;5014358;28;20222;-81
2024/02/16 03:02:05;;;;;;;5.37;3.00;;;12.70;99.90;;;;;;5011352;28;20242;-84
2024/02/16 03:04:31;;;;;;;5.73;3.10;;;12.70;99.90;;;;;;5008717;28;20202;-85
2024/02/16 03:06:56;;;;;;;3.40;2.37;;;12.70;99.90;;;;;;5013267;28;20194;-84
2024/02/16 03:09:22;;;;;;;4.40;2.87;;;12.70;99.90;;;;;;5015381;28;20668;-84
2024/02/16 03:11:49;;;;;;;4.57;2.87;;;12.70;99.90;;;;;;5012831;28;20788;-84
2024/02/16 03:14:16;;;;;;;4.80;2.77;;;12.70;99.90;;;;;;5014039;28;20469;-83
2024/02/16 03:16:41;;;;;;;5.93;3.40;;;12.70;99.90;;;;;;5019728;28;20557;-84
2024/02/16 03:19:08;;;;;;;6.03;4.10;;;12.60;99.90;;;;;;5019753;28;20531;-84
2024/02/16 03:21:34;;;;;;;6.63;4.83;;;12.60;1.00;;;;;;5018305;28;20187;-87
2024/02/16 03:24:01;;;;;;;6.57;5.07;;;12.60;1.00;;;;;;5017969;28;20913;-85
2024/02/16 03:26:27;;;;;;;7.67;4.63;;;12.50;1.00;;;;;;5017799;28;20438;-85
2024/02/16 03:28:52;;;;;;;8.40;4.50;;;12.50;1.00;;;;;;5010471;28;20815;-84
2024/02/16 03:31:20;;;;;;;5.40;4.30;;;12.50;1.00;;;;;;5007827;28;20563;-85
2024/02/16 03:33:46;;;;;;;5.87;3.90;;;12.60;99.90;;;;;;5020881;28;20189;-84
2024/02/16 03:36:14;;;;;;;8.23;3.23;;;12.60;1.00;;;;;;5019701;28;20489;-83
2024/02/16 03:38:49;;;;;;;6.93;3.60;;;12.60;1.00;;;;;;5011282;28;20808;-84
2024/02/16 03:41:19;;;;;;;5.93;2.97;;;12.60;99.90;;;;;;5025751;28;20822;-84
2024/02/16 03:43:44;;;;;;;4.43;3.23;;;12.70;99.90;;;;;;5018547;28;20496;-83
2024/02/16 03:46:10;;;;;;;3.73;2.87;;;12.70;99.90;;;;;;5021666;28;20439;-83
2024/02/16 03:48:36;;;;;;;6.30;2.70;;;12.70;99.90;;;;;;5023800;28;20949;-85
2024/02/16 03:51:03;;;;;;;2.53;2.20;;;12.80;99.90;;;;;;4998880;28;20218;-84
2024/02/16 03:53:28;;;;;;;6.43;3.43;;;12.80;43.80;;;;;;5013064;28;20270;-86
2024/02/16 03:55:54;;;;;;;11.70;7.23;;;12.90;1.00;;;;;;5020746;28;20922;-84
2024/02/16 03:58:21;;;;;;;11.60;8.67;;;12.90;1.00;;;;;;5023454;28;20220;-82
2024/02/16 04:00:48;;;;;;;8.13;5.20;;;12.90;1.00;;;;;;5018975;28;20206;-84
2024/02/16 04:03:14;;;;;;;10.70;6.50;;;13.00;1.00;;;;;;5014593;28;20528;-82
2024/02/16 04:05:40;;;;;;;6.57;4.97;;;12.90;1.00;;;;;;4993813;28;20530;-84
2024/02/16 04:08:06;;;;;;;17.10;8.57;;;12.90;1.00;;;;;;5022532;28;20206;-85
2024/02/16 04:10:32;;;;;;;36.27;20.20;;;13.00;1.00;;;;;;5001763;28;20193;-84
2024/02/16 04:12:58;;;;;;;40.30;19.03;;;13.00;1.00;;;;;;5014185;28;20450;-84
2024/02/16 04:15:24;;;;;;;92.63;43.17;;;13.00;99.90;;;;;;5014433;28;20456;-84
2024/02/16 04:17:49;;;;;;;74.43;36.57;;;13.00;99.90;;;;;;5014766;28;20193;-84
2024/02/16 04:20:16;;;;;;;57.47;28.37;;;13.00;99.90;;;;;;4996476;28;20193;-84
2024/02/16 04:22:41;;;;;;;34.33;16.70;;;13.00;1.00;;;;;;5000246;28;21091;-82
2024/02/16 04:25:08;;;;;;;31.67;15.43;;;12.90;1.00;;;;;;5016307;28;20450;-83
2024/02/16 04:27:37;;;;;;;75.27;33.10;;;12.90;1.00;;;;;;5012714;28;20802;-83
2024/02/16 04:30:03;;;;;;;30.77;16.50;;;12.90;1.00;;;;;;5013555;28;20476;-83
2024/02/16 04:32:29;;;;;;;22.80;10.30;;;12.90;47.90;;;;;;5005597;28;20890;-83
2024/02/16 04:34:58;;;;;;;32.90;17.93;;;12.90;99.90;;;;;;5021053;28;20469;-85
2024/02/16 04:37:27;;;;;;;65.77;33.77;;;12.80;99.90;;;;;;5014740;28;20440;-86
2024/02/16 04:39:53;;;;;;;19.37;10.43;;;12.80;99.90;;;;;;4999912;28;20470;-82
2024/02/16 04:42:18;;;;;;;26.10;13.37;;;12.80;99.90;;;;;;5017863;28;20465;-83
2024/02/16 04:44:44;;;;;;;36.67;19.30;;;12.80;1.00;;;;;;5015314;28;20257;-84
2024/02/16 04:47:09;;;;;;;33.20;18.10;;;12.70;1.00;;;;;;5022505;28;20190;-87
2024/02/16 04:49:36;;;;;;;26.97;12.97;;;12.70;1.00;;;;;;5013029;28;20210;-86
2024/02/16 04:52:02;;;;;;;30.30;14.43;;;12.70;1.00;;;;;;5024981;28;20266;-84
2024/02/16 04:54:28;;;;;;;16.90;11.03;;;12.60;1.00;;;;;;5021146;28;22467;-85
2024/02/16 04:56:53;;;;;;;19.83;10.90;;;12.60;1.00;;;;;;5022949;28;20435;-83
2024/02/16 04:59:19;;;;;;;64.40;32.07;;;12.60;1.00;;;;;;5023330;28;20243;-84
2024/02/16 05:01:45;;;;;;;55.33;28.13;;;12.60;1.00;;;;;;5022185;28;20239;-84
2024/02/16 05:04:13;;;;;;;49.07;26.03;;;12.60;1.00;;;;;;5021833;28;20198;-83
2024/02/16 05:06:40;;;;;;;30.23;15.10;;;12.60;1.00;;;;;;5000907;28;20450;-84
2024/02/16 05:09:05;;;;;;;33.40;18.53;;;12.60;1.00;;;;;;5020081;28;20472;-86
2024/02/16 05:11:32;;;;;;;20.20;13.73;;;12.60;1.00;;;;;;5021044;28;20438;-85
2024/02/16 05:13:58;;;;;;;35.93;20.70;;;12.60;8.80;;;;;;5022824;28;20564;-84
2024/02/16 05:16:24;;;;;;;25.53;15.30;;;12.60;37.80;;;;;;5016745;28;20452;-85
2024/02/16 05:18:49;;;;;;;23.53;12.63;;;12.60;91.60;;;;;;5021375;28;20632;-83
2024/02/16 05:21:16;;;;;;;44.83;26.87;;;12.50;99.90;;;;;;5014637;28;20443;-84
2024/02/16 05:23:42;;;;;;;32.17;18.17;;;12.50;99.90;;;;;;5023980;28;20221;-84
2024/02/16 05:26:07;;;;;;;38.30;21.60;;;12.60;99.90;;;;;;5019992;28;20524;-84
2024/02/16 05:28:33;;;;;;;25.20;15.40;;;12.60;99.90;;;;;;5016639;28;20207;-83
2024/02/16 05:31:14;;;;;;;14.77;8.47;;;12.60;99.90;;;;;;5005556;28;20183;-84
2024/02/16 05:33:40;;;;;;;24.03;15.17;;;12.60;99.90;;;;;;5011855;28;20442;-84
2024/02/16 05:36:06;;;;;;;54.80;30.93;;;12.60;98.10;;;;;;5018338;28;20444;-84
2024/02/16 05:38:34;;;;;;;31.83;18.03;;;12.60;76.50;;;;;;5008177;28;20210;-85
2024/02/16 05:41:00;;;;;;;6.37;3.90;;;12.70;46.90;;;;;;5016774;28;20453;-84
2024/02/16 05:43:26;;;;;;;34.03;16.73;;;12.70;17.60;;;;;;4998916;28;20670;-84
2024/02/16 05:45:51;;;;;;;18.53;11.10;;;12.80;1.00;;;;;;5020734;28;20192;-84
2024/02/16 05:48:17;;;;;;;6.20;4.33;;;12.80;1.00;;;;;;4999861;28;20298;-85
2024/02/16 05:50:44;;;;;;;11.70;8.13;;;12.90;1.00;;;;;;5013320;28;20181;-83
2024/02/16 05:53:10;;;;;;;8.43;3.47;;;12.90;1.00;;;;;;5013283;28;20183;-84
2024/02/16 05:55:36;;;;;;;22.30;15.07;;;12.90;1.00;;;;;;5014624;28;20515;-85
2024/02/16 05:58:03;;;;;;;9.00;3.90;;;13.00;1.00;;;;;;5015342;28;20471;-84
2024/02/16 06:00:31;;;;;;;12.20;7.83;;;13.00;1.00;;;;;;5011989;28;20839;-85
2024/02/16 06:02:57;;;;;;;7.73;4.70;;;13.10;1.00;;;;;;4998306;28;20475;-82
2024/02/16 06:05:22;;;;;;;4.00;3.00;;;13.10;99.90;;;;;;5017465;28;20447;-83
2024/02/16 06:07:48;;;;;;;5.03;4.10;;;13.10;99.90;;;;;;5017076;28;20193;-85
2024/02/16 06:10:14;;;;;;;5.63;3.57;;;13.10;99.90;;;;;;5012984;28;20188;-85
2024/02/16 06:12:39;;;;;;;5.23;3.27;;;13.10;99.90;;;;;;5010242;28;20740;-84
2024/02/16 06:15:05;;;;;;;5.17;3.47;;;13.20;99.90;;;;;;5018347;28;20186;-83
2024/02/16 06:17:31;;;;;;;4.93;3.33;;;13.20;99.90;;;;;;5022060;28;20229;-84
2024/02/16 06:19:56;;;;;;;4.80;3.40;;;13.20;25.90;;;;;;5021977;28;20466;-84
2024/02/16 06:22:22;;;;;;;6.03;3.70;;;13.20;21.00;;;;;;5022945;28;20222;-85
2024/02/16 06:24:48;;;;;;;9.27;3.43;;;13.20;73.80;;;;;;5023411;28;20211;-85
2024/02/16 06:27:13;;;;;;;5.13;2.97;;;13.20;99.90;;;;;;5009007;28;20195;-85
2024/02/16 06:29:39;;;;;;;4.13;3.17;;;13.20;99.90;;;;;;5016532;28;20193;-86
2024/02/16 06:32:05;;;;;;;4.60;3.43;;;13.20;99.90;;;;;;5018140;28;20167;-84
2024/02/16 06:34:31;;;;;;;7.87;3.73;;;13.20;99.90;;;;;;5024924;28;20184;-84
2024/02/16 06:36:57;;;;;;;10.70;3.23;;;13.20;99.90;;;;;;5025629;28;20441;-83
2024/02/16 06:39:22;;;;;;;5.53;3.33;;;13.20;99.90;;;;;;5001108;28;20455;-83
2024/02/16 06:41:51;;;;;;;7.30;3.43;;;13.20;99.90;;;;;;5016839;28;20436;-87
2024/02/16 06:44:17;;;;;;;4.13;3.00;;;13.20;99.90;;;;;;5022448;28;20216;-85
2024/02/16 06:46:43;;;;;;;7.70;3.20;;;13.20;99.90;;;;;;5014771;28;20987;-83
2024/02/16 06:49:09;;;;;;;5.00;3.30;;;13.30;59.80;;;;;;5023948;28;20224;-85
2024/02/16 06:51:36;;;;;;;4.10;2.63;;;13.20;27.50;;;;;;5004980;28;20868;-81
2024/02/16 06:54:02;;;;;;;3.97;3.13;;;13.30;1.00;;;;;;4998708;28;20462;-85
2024/02/16 06:56:29;;;;;;;6.13;3.10;;;13.30;1.00;;;;;;5022322;28;20956;-85
2024/02/16 06:58:54;;;;;;;8.97;3.17;;;13.30;1.00;;;;;;5002492;28;20528;-83
2024/02/16 07:01:20;;;;;;;4.90;2.30;;;13.40;1.00;;;;;;5020284;28;20498;-82
2024/02/16 07:03:45;;;;;;;5.03;2.53;;;13.40;1.00;;;;;;5013130;28;20209;-82
2024/02/16 07:06:13;;;;;;;7.67;2.97;;;13.50;99.90;;;;;;5020048;28;20212;-81
2024/02/16 07:08:40;;;;;;;4.30;2.70;;;13.60;1.00;;;;;;5025921;28;20749;-82
2024/02/16 07:11:05;;;;;;;7.13;3.10;;;13.70;99.90;;;;;;5024179;28;21069;-84
2024/02/16 07:13:34;;;;;;;6.07;3.07;;;13.80;1.00;;;;;;5017407;28;20444;-82
2024/02/16 07:16:00;;;;;;;5.83;3.03;;;13.90;1.00;;;;;;5023712;28;20194;-81
2024/02/16 07:18:26;;;;;;;5.80;2.80;;;14.00;1.00;;;;;;5020652;28;20464;-81
2024/02/16 07:20:51;;;;;;;10.10;3.37;;;14.10;99.90;;;;;;5020751;28;20677;-82
2024/02/16 07:23:17;;;;;;;3.53;2.77;;;14.20;99.90;;;;;;5018858;28;20199;-82
2024/02/16 07:25:43;;;;;;;8.57;3.00;;;14.20;1.00;;;;;;5000639;28;20185;-84
2024/02/16 07:28:08;;;;;;;4.33;3.17;;;14.30;99.90;;;;;;5021353;28;20277;-83
2024/02/16 07:30:39;;;;;;;7.00;3.30;;;14.40;99.90;;;;;;5013081;28;20222;-83
2024/02/16 07:33:08;;;;;;;6.37;3.50;;;14.50;88.20;;;;;;5014771;28;20664;-83
2024/02/16 07:35:35;;;;;;;5.00;3.00;;;14.60;1.00;;;;;;5019278;28;20449;-84
2024/02/16 07:38:01;;;;;;;4.93;2.70;;;14.70;1.00;;;;;;5016001;28;20557;-82
2024/02/16 07:40:27;;;;;;;4.30;3.13;;;14.70;1.00;;;;;;5020170;28;20486;-82
2024/02/16 07:42:53;;;;;;;6.60;3.50;;;14.80;1.00;;;;;;5003594;28;20483;-83
2024/02/16 07:45:19;;;;;;;7.80;2.97;;;14.80;99.90;;;;;;5000566;28;20962;-83
2024/02/16 07:47:45;;;;;;;6.17;3.17;;;14.80;99.90;;;;;;4999009;28;20209;-84
2024/02/16 07:50:11;;;;;;;3.30;2.47;;;14.90;99.90;;;;;;5022445;28;20438;-83
2024/02/16 07:52:39;;;;;;;7.20;3.30;;;14.90;99.90;;;;;;5007669;28;20479;-85
2024/02/16 07:55:06;;;;;;;5.07;2.40;;;14.90;99.90;;;;;;5028458;28;20245;-84
2024/02/16 07:57:31;;;;;;;6.13;3.10;;;15.00;99.90;;;;;;5027529;28;20449;-86
2024/02/16 07:59:57;;;;;;;6.23;3.63;;;15.00;99.90;;;;;;5023955;28;21042;-85
2024/02/16 08:02:23;;;;;;;6.17;2.70;;;15.10;57.70;;;;;;5016957;28;20211;-85
2024/02/16 08:04:49;;;;;;;14.43;3.50;;;15.20;1.00;;;;;;5024523;28;20182;-85
2024/02/16 08:07:16;;;;;;;6.07;3.47;;;15.20;1.00;;;;;;5009271;28;20194;-84
2024/02/16 08:09:46;;;;;;;6.47;3.47;;;15.30;1.00;;;;;;5017206;28;20834;-85
2024/02/16 08:12:13;;;;;;;6.00;3.00;;;15.40;1.00;;;;;;5022840;28;20537;-85
2024/02/16 08:14:39;;;;;;;5.30;2.87;;;15.60;1.00;;;;;;5004715;28;20816;-85
2024/02/16 08:17:06;;;;;;;9.13;3.20;;;15.60;1.00;;;;;;5017323;28;20461;-85
2024/02/16 08:19:34;;;;;;;7.53;3.50;;;15.80;1.00;;;;;;5016406;28;20583;-85
2024/02/16 08:22:00;;;;;;;5.07;3.20;;;15.90;99.90;;;;;;5018466;28;20451;-85
2024/02/16 08:24:26;;;;;;;6.93;3.13;;;16.00;99.90;;;;;;5021387;28;20472;-86
2024/02/16 08:26:52;;;;;;;8.10;3.17;;;16.00;99.90;;;;;;5021931;28;20439;-82
2024/02/16 08:29:18;;;;;;;7.83;2.63;;;16.00;99.90;;;;;;5021606;28;20454;-85
2024/02/16 08:31:44;;;;;;;6.17;2.70;;;16.00;99.90;;;;;;5017585;28;20647;-86
2024/02/16 08:34:10;;;;;;;6.67;3.43;;;16.00;99.90;;;;;;5016614;28;20307;-85
2024/02/16 08:36:36;;;;;;;5.67;3.50;;;16.00;99.90;;;;;;5023262;28;20442;-86
2024/02/16 08:39:01;;;;;;;10.00;3.37;;;16.00;99.90;;;;;;5019628;28;20525;-88
2024/02/16 08:41:27;;;;;;;8.27;3.13;;;16.10;99.90;;;;;;5022912;28;20457;-83
2024/02/16 08:43:52;;;;;;;6.03;2.60;;;16.10;99.90;;;;;;5030371;28;20236;-86
2024/02/16 08:46:18;;;;;;;6.90;2.90;;;16.00;99.90;;;;;;5015816;28;20181;-85
2024/02/16 08:48:47;;;;;;;6.97;2.80;;;16.10;99.90;;;;;;5015138;28;20560;-85
2024/02/16 08:51:13;;;;;;;6.03;2.83;;;16.10;99.90;;;;;;4997563;28;20195;-85
2024/02/16 08:53:39;;;;;;;5.20;3.50;;;16.00;99.90;;;;;;5018732;28;21939;-85
2024/02/16 08:56:11;;;;;;;9.77;3.17;;;16.00;99.90;;;;;;5024984;28;20552;-83
2024/02/16 08:58:37;;;;;;;9.70;4.00;;;16.00;99.90;;;;;;5022984;28;20465;-85
2024/02/16 09:01:02;;;;;;;6.20;3.10;;;16.00;99.90;;;;;;5023065;28;20949;-85
2024/02/16 09:03:29;;;;;;;7.10;3.30;;;15.90;99.90;;;;;;5029067;28;20636;-85
2024/02/16 09:05:54;;;;;;;5.37;2.97;;;15.90;1.00;;;;;;5003027;28;20456;-86
2024/02/16 09:08:20;;;;;;;4.07;2.70;;;16.00;1.00;;;;;;5021721;28;20200;-85
2024/02/16 09:10:46;;;;;;;5.17;2.60;;;16.00;1.00;;;;;;5018356;28;20379;-85
2024/02/16 09:13:11;;;;;;;4.73;2.80;;;16.10;1.00;;;;;;5012829;28;20189;-84
2024/02/16 09:15:37;;;;;;;4.83;2.80;;;16.10;1.00;;;;;;5020849;28;20439;-85
2024/02/16 09:18:03;;;;;;;5.77;3.10;;;16.20;1.00;;;;;;5016792;28;20209;-87
2024/02/16 09:20:29;;;;;;;7.73;3.43;;;16.20;99.90;;;;;;5029528;28;20442;-87
2024/02/16 09:22:54;;;;;;;6.30;3.57;;;16.30;99.90;;;;;;5027137;28;20274;-85
2024/02/16 09:25:21;;;;;;;7.40;3.07;;;16.30;99.90;;;;;;5018008;28;20220;-85
2024/02/16 09:27:46;;;;;;;6.40;3.20;;;16.40;99.90;;;;;;5021879;28;20204;-87
2024/02/16 09:30:13;;;;;;;7.57;3.00;;;16.30;99.90;;;;;;5022497;28;20992;-86
2024/02/16 09:32:42;;;;;;;9.27;3.80;;;16.30;99.90;;;;;;5016707;28;20217;-85
2024/02/16 09:35:08;;;;;;;8.27;3.50;;;16.30;99.90;;;;;;5015999;28;20546;-85
2024/02/16 09:37:37;;;;;;;6.60;2.97;;;16.30;99.90;;;;;;5013351;28;20543;-84
2024/02/16 09:40:03;;;;;;;5.40;2.97;;;16.40;99.90;;;;;;5011614;28;20200;-86
2024/02/16 09:42:29;;;;;;;5.23;3.17;;;16.40;99.90;;;;;;5018286;28;20465;-85
2024/02/16 09:44:55;;;;;;;7.77;3.53;;;16.40;99.90;;;;;;5016806;28;20494;-86
2024/02/16 09:47:23;;;;;;;4.37;2.77;;;16.40;99.90;;;;;;5021048;28;20178;-87
2024/02/16 09:49:49;;;;;;;5.30;3.23;;;16.30;99.90;;;;;;5017243;28;20252;-86
2024/02/16 09:52:14;;;;;;;13.97;3.43;;;16.40;1.00;;;;;;5013575;28;20442;-86
2024/02/16 09:54:40;;;;;;;7.43;3.33;;;16.50;99.90;;;;;;5018798;28;20193;-85
2024/02/16 09:57:06;;;;;;;7.70;3.50;;;16.60;99.90;;;;;;5002363;28;20567;-87
2024/02/16 09:59:32;;;;;;;6.40;3.70;;;16.60;99.90;;;;;;5017212;28;20479;-84
2024/02/16 10:02:02;;;;;;;5.30;3.27;;;16.60;99.90;;;;;;4997459;28;20435;-85
2024/02/16 10:04:28;;;;;;;7.20;3.37;;;16.70;99.90;;;;;;5023553;28;20459;-84
2024/02/16 10:06:53;;;;;;;9.13;3.80;;;16.70;99.90;;;;;;5016974;28;20510;-85
2024/02/16 10:09:26;;;;;;;7.83;3.50;;;16.70;99.90;;;;;;5013875;28;20471;-85
2024/02/16 10:11:52;;;;;;;6.00;2.83;;;16.70;99.90;;;;;;5012751;28;20203;-85
2024/02/16 10:14:20;;;;;;;7.73;3.63;;;16.70;99.90;;;;;;5008083;28;20829;-84
2024/02/16 10:16:58;;;;;;;8.07;3.97;;;16.70;99.90;;;;;;5016033;28;20193;-85
2024/02/16 10:19:24;;;;;;;7.90;3.70;;;16.70;99.90;;;;;;5012151;28;20955;-85
2024/02/16 10:21:49;;;;;;;6.97;3.17;;;16.70;99.90;;;;;;5019665;28;20455;-85
2024/02/16 10:24:15;;;;;;;8.53;4.67;;;16.80;99.90;;;;;;5020794;28;20213;-85
2024/02/16 10:26:41;;;;;;;12.23;3.80;;;16.90;99.90;;;;;;5022445;28;20211;-83
2024/02/16 10:29:09;;;;;;;10.87;3.70;;;16.90;99.90;;;;;;5015882;28;20216;-84
2024/02/16 10:31:35;;;;;;;10.50;4.67;;;16.90;99.90;;;;;;5006855;28;20484;-86
2024/02/16 10:34:05;;;;;;;6.07;3.37;;;17.00;99.90;;;;;;5020595;28;20519;-85
2024/02/16 10:36:35;;;;;;;8.03;3.70;;;17.10;99.90;;;;;;4999840;28;20190;-84
2024/02/16 10:39:04;;;;;;;7.13;3.70;;;17.20;99.90;;;;;;5014196;28;20469;-85
2024/02/16 10:41:34;;;;;;;12.00;4.57;;;17.20;99.90;;;;;;5011340;28;20449;-85
2024/02/16 10:44:04;;;;;;;8.47;3.67;;;17.30;99.90;;;;;;5014540;28;20479;-86
2024/02/16 10:46:30;;;;;;;9.07;3.90;;;17.30;99.90;;;;;;4999266;28;20803;-86
2024/02/16 10:48:56;;;;;;;9.57;4.17;;;17.30;99.90;;;;;;5013787;28;20468;-84
2024/02/16 10:51:31;;;;;;;6.60;4.40;;;17.40;99.90;;;;;;4999000;28;20453;-85
2024/02/16 10:53:59;;;;;;;13.87;3.90;;;17.50;99.90;;;;;;5016187;28;20479;-86
2024/02/16 10:56:39;;;;;;;11.90;4.00;;;17.50;99.90;;;;;;5002744;28;20532;-85
2024/02/16 10:59:09;;;;;;;11.07;4.03;;;17.70;99.90;;;;;;5021195;28;20510;-86
2024/02/16 11:01:42;;;;;;;12.30;4.40;;;17.80;99.90;;;;;;5007648;28;20862;-85
2024/02/16 11:04:11;;;;;;;11.80;4.30;;;17.90;91.80;;;;;;5019215;28;20473;-86
2024/02/16 11:06:46;;;;;;;12.27;4.40;;;17.90;76.90;;;;;;5017770;28;20437;-87
2024/02/16 11:09:22;;;;;;;8.53;4.10;;;17.90;73.00;;;;;;5010732;28;20950;-84
2024/02/16 11:12:06;;;;;;;7.47;3.70;;;17.90;83.50;;;;;;5014290;28;20447;-86
2024/02/16 11:14:36;;;;;;;14.03;4.90;;;17.80;97.30;;;;;;5013440;28;20446;-84
2024/02/16 11:17:11;;;;;;;10.23;4.50;;;17.70;95.70;;;;;;5019356;28;20449;-85
2024/02/16 11:19:37;;;;;;;8.07;4.00;;;17.60;99.90;;;;;;5002990;28;20491;-84
2024/02/16 11:22:10;;;;;;;9.83;4.27;;;17.40;99.90;;;;;;5019174;28;20505;-84
2024/02/16 11:24:37;;;;;;;12.67;4.40;;;17.30;99.90;;;;;;5020453;28;20436;-86
2024/02/16 11:27:07;;;;;;;8.00;6.07;;;17.20;99.90;;;;;;5003000;28;20499;-85
2024/02/16 11:29:34;;;;;;;7.07;4.23;;;17.30;99.90;;;;;;5010254;28;20467;-86
2024/02/16 11:32:02;;;;;;;7.70;4.17;;;17.20;99.90;;;;;;5019312;28;20447;-85
2024/02/16 11:34:28;;;;;;;10.80;4.53;;;17.20;99.90;;;;;;5018973;28;20547;-86
2024/02/16 11:36:55;;;;;;;7.50;4.13;;;17.20;99.90;;;;;;5018885;28;20436;-85
2024/02/16 11:39:22;;;;;;;8.23;4.33;;;17.10;99.90;;;;;;5006808;28;20459;-85
2024/02/16 11:41:48;;;;;;;11.43;4.53;;;17.10;1.00;;;;;;5011485;28;20468;-84
2024/02/16 11:44:16;;;;;;;7.53;4.17;;;17.00;1.00;;;;;;5019473;28;20556;-85
2024/02/16 11:46:42;;;;;;;6.67;4.10;;;17.00;1.00;;;;;;5019132;28;20202;-83
2024/02/16 11:49:10;;;;;;;7.77;4.30;;;16.90;1.00;;;;;;5017834;28;20521;-85
2024/02/16 11:51:35;;;;;;;6.23;4.50;;;16.90;1.00;;;;;;5003550;28;20440;-85
2024/02/16 11:54:01;;;;;;;7.00;4.67;;;16.90;33.70;;;;;;5003204;28;20497;-85
2024/02/16 11:56:27;;;;;;;6.10;4.13;;;17.00;82.50;;;;;;5015868;28;20205;-84
2024/02/16 11:58:53;;;;;;;10.10;4.87;;;17.00;99.90;;;;;;5018935;28;20203;-84
2024/02/16 12:01:19;;;;;;;7.60;4.20;;;16.90;99.90;;;;;;5019132;28;20722;-85
2024/02/16 12:03:46;;;;;;;7.77;4.67;;;16.80;99.90;;;;;;5020725;28;20537;-83
2024/02/16 12:06:20;;;;;;;7.40;4.40;;;16.80;1.00;;;;;;5017335;28;20193;-86
2024/02/16 12:08:46;;;;;;;7.00;4.20;;;16.70;1.00;;;;;;5020219;28;20483;-83
2024/02/16 12:11:11;;;;;;;11.70;5.10;;;16.70;99.90;;;;;;5021950;28;20843;-85
2024/02/16 12:13:37;;;;;;;7.00;5.00;;;16.60;1.00;;;;;;5018773;28;20746;-85
2024/02/16 12:16:03;;;;;;;6.97;5.40;;;16.50;99.90;;;;;;5017296;28;20223;-83
2024/02/16 12:18:29;;;;;;;12.93;5.70;;;16.40;1.00;;;;;;5017787;28;20216;-85
2024/02/16 12:21:01;;;;;;;8.50;5.10;;;16.40;99.90;;;;;;5019717;28;20560;-85
2024/02/16 12:23:27;;;;;;;6.63;5.50;;;16.30;1.00;;;;;;5022553;28;20470;-88
2024/02/16 12:25:53;;;;;;;9.47;5.60;;;16.30;99.90;;;;;;5022568;28;20439;-85
2024/02/16 12:28:20;;;;;;;10.87;6.17;;;16.20;99.90;;;;;;5023016;28;20455;-86
2024/02/16 12:30:48;;;;;;;6.70;5.30;;;16.10;1.00;;;;;;5028876;28;20171;-84
2024/02/16 12:33:13;;;;;;;11.33;6.20;;;16.10;99.90;;;;;;5019135;28;20842;-85
2024/02/16 12:35:39;;;;;;;7.73;5.67;;;16.10;1.00;;;;;;5027287;28;20412;-85
2024/02/16 12:38:04;;;;;;;8.90;6.10;;;16.10;1.00;;;;;;5020958;28;20209;-84
2024/02/16 12:40:30;;;;;;;9.60;6.37;;;16.10;1.00;;;;;;5017869;28;20188;-85
2024/02/16 12:42:55;;;;;;;9.67;6.77;;;16.10;1.00;;;;;;5022634;28;20210;-85
2024/02/16 12:45:21;;;;;;;9.57;6.03;;;16.00;1.00;;;;;;5028584;28;20181;-84